sensor_id;sensor_type;location;lat;lon;timestamp;temperature;humidity
7502;DHT22;3792;47.740;7.606;2022-07-22T00:00:14;20.20;99.90
7502;DHT22;3792;47.740;7.606;2022-07-22T00:02:42;20.10;99.90
7502;DHT22;3792;47.740;7.606;2022-07-22T00:05:11;20.00;99.90
7502;DHT22;3792;47.740;7.606;2022-07-22T00:07:38;20.00;99.90
7502;DHT22;3792;47.740;7.606;2022-07-22T00:10:07;20.10;99.90
7502;DHT22;3792;47.740;7.606;2022-07-22T00:12:37;20.20;99.90
7502;DHT22;3792;47.740;7.606;2022-07-22T00:15:06;20.20;99.90
7502;DHT22;3792;47.740;7.606;2022-07-22T00:17:34;20.20;99.90
7502;DHT22;3792;47.740;7.606;2022-07-22T00:20:02;20.20;99.90
7502;DHT22;3792;47.740;7.606;2022-07-22T00:22:31;20.20;99.90
7502;DHT22;3792;47.740;7.606;2022-07-22T00:24:58;19.90;99.90
7502;DHT22;3792;47.740;7.606;2022-07-22T00:27:25;19.90;99.90
7502;DHT22;3792;47.740;7.606;2022-07-22T00:29:52;19.90;99.90
7502;DHT22;3792;47.740;7.606;2022-07-22T00:32:19;19.70;99.90
7502;DHT22;3792;47.740;7.606;2022-07-22T00:34:46;19.60;99.90
7502;DHT22;3792;47.740;7.606;2022-07-22T00:37:13;19.70;99.90
7502;DHT22;3792;47.740;7.606;2022-07-22T00:39:42;19.80;99.90
7502;DHT22;3792;47.740;7.606;2022-07-22T00:42:09;19.80;99.90
7502;DHT22;3792;47.740;7.606;2022-07-22T00:44:36;19.90;99.90
7502;DHT22;3792;47.740;7.606;2022-07-22T00:47:03;20.00;99.90
7502;DHT22;3792;47.740;7.606;2022-07-22T00:49:30;20.00;99.90
7502;DHT22;3792;47.740;7.606;2022-07-22T00:51:57;20.00;99.90
7502;DHT22;3792;47.740;7.606;2022-07-22T00:54:25;20.10;99.90
7502;DHT22;3792;47.740;7.606;2022-07-22T00:56:54;20.20;99.90
7502;DHT22;3792;47.740;7.606;2022-07-22T00:59:21;20.30;99.90
7502;DHT22;3792;47.740;7.606;2022-07-22T01:01:48;20.20;99.90
7502;DHT22;3792;47.740;7.606;2022-07-22T01:04:16;20.20;99.90
7502;DHT22;3792;47.740;7.606;2022-07-22T01:06:44;20.20;99.90
7502;DHT22;3792;47.740;7.606;2022-07-22T01:09:11;19.90;99.90
7502;DHT22;3792;47.740;7.606;2022-07-22T01:11:39;19.90;99.90
7502;DHT22;3792;47.740;7.606;2022-07-22T01:14:08;19.90;99.90
7502;DHT22;3792;47.740;7.606;2022-07-22T01:16:36;19.80;99.90
7502;DHT22;3792;47.740;7.606;2022-07-22T01:19:03;19.80;99.90
7502;DHT22;3792;47.740;7.606;2022-07-22T01:21:32;19.80;99.90
7502;DHT22;3792;47.740;7.606;2022-07-22T01:23:59;19.90;99.90
7502;DHT22;3792;47.740;7.606;2022-07-22T01:26:26;19.80;99.90
7502;DHT22;3792;47.740;7.606;2022-07-22T01:28:53;19.70;99.90
7502;DHT22;3792;47.740;7.606;2022-07-22T01:31:21;19.70;99.90
7502;DHT22;3792;47.740;7.606;2022-07-22T01:33:48;19.70;99.90
7502;DHT22;3792;47.740;7.606;2022-07-22T01:36:15;19.40;99.90
7502;DHT22;3792;47.740;7.606;2022-07-22T01:38:43;19.10;99.90
7502;DHT22;3792;47.740;7.606;2022-07-22T01:41:11;19.20;99.90
7502;DHT22;3792;47.740;7.606;2022-07-22T01:43:38;19.20;99.90
7502;DHT22;3792;47.740;7.606;2022-07-22T01:46:05;19.30;99.90
7502;DHT22;3792;47.740;7.606;2022-07-22T01:48:32;19.30;99.90
7502;DHT22;3792;47.740;7.606;2022-07-22T01:51:00;19.40;99.90
7502;DHT22;3792;47.740;7.606;2022-07-22T01:53:27;19.40;99.90
7502;DHT22;3792;47.740;7.606;2022-07-22T01:55:55;19.40;99.90
7502;DHT22;3792;47.740;7.606;2022-07-22T01:58:22;19.50;99.90
7502;DHT22;3792;47.740;7.606;2022-07-22T02:00:49;19.50;99.90
7502;DHT22;3792;47.740;7.606;2022-07-22T02:03:16;19.40;99.90
7502;DHT22;3792;47.740;7.606;2022-07-22T02:05:43;19.50;99.90
7502;DHT22;3792;47.740;7.606;2022-07-22T02:08:11;19.50;99.90
7502;DHT22;3792;47.740;7.606;2022-07-22T02:10:39;19.50;99.90
7502;DHT22;3792;47.740;7.606;2022-07-22T02:13:08;19.60;99.90
7502;DHT22;3792;47.740;7.606;2022-07-22T02:15:35;19.60;99.90
7502;DHT22;3792;47.740;7.606;2022-07-22T02:18:10;19.70;99.90
7502;DHT22;3792;47.740;7.606;2022-07-22T02:20:37;19.80;99.90
7502;DHT22;3792;47.740;7.606;2022-07-22T02:23:04;19.80;99.90
7502;DHT22;3792;47.740;7.606;2022-07-22T02:25:32;19.80;99.90
7502;DHT22;3792;47.740;7.606;2022-07-22T02:27:59;19.60;99.90
7502;DHT22;3792;47.740;7.606;2022-07-22T02:30:28;19.50;99.90
7502;DHT22;3792;47.740;7.606;2022-07-22T02:32:56;19.50;99.90
7502;DHT22;3792;47.740;7.606;2022-07-22T02:35:23;19.50;99.90
7502;DHT22;3792;47.740;7.606;2022-07-22T02:37:50;19.50;99.90
7502;DHT22;3792;47.740;7.606;2022-07-22T02:40:18;19.30;99.90
7502;DHT22;3792;47.740;7.606;2022-07-22T02:42:45;19.30;99.90
7502;DHT22;3792;47.740;7.606;2022-07-22T02:45:12;19.30;99.90
7502;DHT22;3792;47.740;7.606;2022-07-22T02:47:49;19.40;99.90
7502;DHT22;3792;47.740;7.606;2022-07-22T02:50:16;19.50;99.90
7502;DHT22;3792;47.740;7.606;2022-07-22T02:52:44;19.50;99.90
7502;DHT22;3792;47.740;7.606;2022-07-22T02:55:11;19.50;99.90
7502;DHT22;3792;47.740;7.606;2022-07-22T02:57:38;19.50;99.90
7502;DHT22;3792;47.740;7.606;2022-07-22T03:00:06;19.40;99.90
7502;DHT22;3792;47.740;7.606;2022-07-22T03:02:34;19.40;99.90
7502;DHT22;3792;47.740;7.606;2022-07-22T03:05:02;19.40;99.90
7502;DHT22;3792;47.740;7.606;2022-07-22T03:07:30;19.30;99.90
7502;DHT22;3792;47.740;7.606;2022-07-22T03:09:57;19.20;99.90
7502;DHT22;3792;47.740;7.606;2022-07-22T03:12:24;19.30;99.90
7502;DHT22;3792;47.740;7.606;2022-07-22T03:14:51;19.30;99.90
7502;DHT22;3792;47.740;7.606;2022-07-22T03:17:18;19.40;99.90
7502;DHT22;3792;47.740;7.606;2022-07-22T03:19:45;19.40;99.90
7502;DHT22;3792;47.740;7.606;2022-07-22T03:22:14;19.60;99.90
7502;DHT22;3792;47.740;7.606;2022-07-22T03:24:41;19.60;99.90
7502;DHT22;3792;47.740;7.606;2022-07-22T03:27:08;19.50;99.90
7502;DHT22;3792;47.740;7.606;2022-07-22T03:29:35;19.50;99.90
7502;DHT22;3792;47.740;7.606;2022-07-22T03:32:02;19.50;99.90
7502;DHT22;3792;47.740;7.606;2022-07-22T03:34:29;19.40;99.90
7502;DHT22;3792;47.740;7.606;2022-07-22T03:36:56;19.20;99.90
7502;DHT22;3792;47.740;7.606;2022-07-22T03:39:25;18.90;99.90
7502;DHT22;3792;47.740;7.606;2022-07-22T03:41:52;18.80;99.90
7502;DHT22;3792;47.740;7.606;2022-07-22T03:44:19;18.80;99.90
7502;DHT22;3792;47.740;7.606;2022-07-22T03:46:46;18.90;99.90
7502;DHT22;3792;47.740;7.606;2022-07-22T03:49:13;18.90;99.90
7502;DHT22;3792;47.740;7.606;2022-07-22T03:51:40;18.90;99.90
7502;DHT22;3792;47.740;7.606;2022-07-22T03:54:07;18.90;99.90
7502;DHT22;3792;47.740;7.606;2022-07-22T03:56:36;18.70;99.90
7502;DHT22;3792;47.740;7.606;2022-07-22T03:59:03;18.70;99.90
7502;DHT22;3792;47.740;7.606;2022-07-22T04:01:30;18.70;99.90
7502;DHT22;3792;47.740;7.606;2022-07-22T04:03:57;18.60;99.90
7502;DHT22;3792;47.740;7.606;2022-07-22T04:06:24;18.40;99.90
7502;DHT22;3792;47.740;7.606;2022-07-22T04:08:51;18.40;99.90
7502;DHT22;3792;47.740;7.606;2022-07-22T04:11:20;18.30;99.90
7502;DHT22;3792;47.740;7.606;2022-07-22T04:13:49;18.40;99.90
7502;DHT22;3792;47.740;7.606;2022-07-22T04:16:16;18.60;99.90
7502;DHT22;3792;47.740;7.606;2022-07-22T04:18:43;18.70;99.90
7502;DHT22;3792;47.740;7.606;2022-07-22T04:21:11;18.90;99.90
7502;DHT22;3792;47.740;7.606;2022-07-22T04:23:38;19.00;99.90
7502;DHT22;3792;47.740;7.606;2022-07-22T04:26:06;19.10;99.90
7502;DHT22;3792;47.740;7.606;2022-07-22T04:28:33;19.10;99.90
7502;DHT22;3792;47.740;7.606;2022-07-22T04:31:02;19.20;99.90
7502;DHT22;3792;47.740;7.606;2022-07-22T04:33:29;19.10;99.90
7502;DHT22;3792;47.740;7.606;2022-07-22T04:35:57;19.10;99.90
7502;DHT22;3792;47.740;7.606;2022-07-22T04:38:24;19.10;99.90
7502;DHT22;3792;47.740;7.606;2022-07-22T04:40:51;19.00;99.90
7502;DHT22;3792;47.740;7.606;2022-07-22T04:43:18;19.00;99.90
7502;DHT22;3792;47.740;7.606;2022-07-22T04:45:45;19.00;99.90
7502;DHT22;3792;47.740;7.606;2022-07-22T04:48:14;18.90;99.90
7502;DHT22;3792;47.740;7.606;2022-07-22T04:50:41;19.00;99.90
7502;DHT22;3792;47.740;7.606;2022-07-22T04:53:08;19.00;99.90
7502;DHT22;3792;47.740;7.606;2022-07-22T04:55:35;19.10;99.90
7502;DHT22;3792;47.740;7.606;2022-07-22T04:58:02;19.20;99.90
7502;DHT22;3792;47.740;7.606;2022-07-22T05:00:30;19.20;99.90
7502;DHT22;3792;47.740;7.606;2022-07-22T05:02:57;19.20;99.90
7502;DHT22;3792;47.740;7.606;2022-07-22T05:05:25;19.10;99.90
7502;DHT22;3792;47.740;7.606;2022-07-22T05:07:52;19.10;99.90
7502;DHT22;3792;47.740;7.606;2022-07-22T05:10:19;19.20;99.90
7502;DHT22;3792;47.740;7.606;2022-07-22T05:12:47;19.40;99.90
7502;DHT22;3792;47.740;7.606;2022-07-22T05:15:14;19.60;99.90
7502;DHT22;3792;47.740;7.606;2022-07-22T05:17:41;19.80;99.90
7502;DHT22;3792;47.740;7.606;2022-07-22T05:20:09;20.00;99.90
7502;DHT22;3792;47.740;7.606;2022-07-22T05:22:37;20.10;99.90
7502;DHT22;3792;47.740;7.606;2022-07-22T05:25:05;20.20;99.90
7502;DHT22;3792;47.740;7.606;2022-07-22T05:27:32;20.20;99.90
7502;DHT22;3792;47.740;7.606;2022-07-22T05:29:59;20.20;99.90
7502;DHT22;3792;47.740;7.606;2022-07-22T05:32:26;20.10;99.90
7502;DHT22;3792;47.740;7.606;2022-07-22T05:34:53;20.10;99.90
7502;DHT22;3792;47.740;7.606;2022-07-22T05:37:20;20.00;99.90
7502;DHT22;3792;47.740;7.606;2022-07-22T05:39:48;20.10;99.90
7502;DHT22;3792;47.740;7.606;2022-07-22T05:42:16;20.20;99.90
7502;DHT22;3792;47.740;7.606;2022-07-22T05:44:43;20.40;99.90
7502;DHT22;3792;47.740;7.606;2022-07-22T05:47:10;20.50;99.90
7502;DHT22;3792;47.740;7.606;2022-07-22T05:49:37;20.50;99.90
7502;DHT22;3792;47.740;7.606;2022-07-22T05:52:06;20.60;99.90
7502;DHT22;3792;47.740;7.606;2022-07-22T05:54:33;20.80;99.90
7502;DHT22;3792;47.740;7.606;2022-07-22T05:57:01;21.00;99.90
7502;DHT22;3792;47.740;7.606;2022-07-22T05:59:28;21.20;99.90
7502;DHT22;3792;47.740;7.606;2022-07-22T06:01:55;21.40;99.90
7502;DHT22;3792;47.740;7.606;2022-07-22T06:04:22;21.60;99.90
7502;DHT22;3792;47.740;7.606;2022-07-22T06:06:49;21.80;99.90
7502;DHT22;3792;47.740;7.606;2022-07-22T06:09:16;21.90;99.90
7502;DHT22;3792;47.740;7.606;2022-07-22T06:11:44;22.10;99.90
7502;DHT22;3792;47.740;7.606;2022-07-22T06:14:12;22.20;99.90
7502;DHT22;3792;47.740;7.606;2022-07-22T06:16:39;22.30;99.90
7502;DHT22;3792;47.740;7.606;2022-07-22T06:19:06;22.30;99.90
7502;DHT22;3792;47.740;7.606;2022-07-22T06:21:34;22.30;99.90
7502;DHT22;3792;47.740;7.606;2022-07-22T06:24:01;22.40;99.90
7502;DHT22;3792;47.740;7.606;2022-07-22T06:26:29;22.30;99.90
7502;DHT22;3792;47.740;7.606;2022-07-22T06:28:56;22.00;99.90
7502;DHT22;3792;47.740;7.606;2022-07-22T06:31:25;21.80;99.90
7502;DHT22;3792;47.740;7.606;2022-07-22T06:33:52;21.80;99.90
7502;DHT22;3792;47.740;7.606;2022-07-22T06:36:19;21.60;99.90
7502;DHT22;3792;47.740;7.606;2022-07-22T06:38:46;21.60;99.90
7502;DHT22;3792;47.740;7.606;2022-07-22T06:41:13;21.80;99.90
7502;DHT22;3792;47.740;7.606;2022-07-22T06:43:44;22.00;99.90
7502;DHT22;3792;47.740;7.606;2022-07-22T06:46:11;22.20;99.90
7502;DHT22;3792;47.740;7.606;2022-07-22T06:48:39;22.50;99.90
7502;DHT22;3792;47.740;7.606;2022-07-22T06:51:06;22.60;99.90
7502;DHT22;3792;47.740;7.606;2022-07-22T06:53:34;22.70;99.90
7502;DHT22;3792;47.740;7.606;2022-07-22T06:56:01;22.80;99.90
7502;DHT22;3792;47.740;7.606;2022-07-22T06:58:28;22.90;99.90
7502;DHT22;3792;47.740;7.606;2022-07-22T07:00:55;23.10;99.90
7502;DHT22;3792;47.740;7.606;2022-07-22T07:03:22;23.20;99.90
7502;DHT22;3792;47.740;7.606;2022-07-22T07:05:52;23.40;99.90
7502;DHT22;3792;47.740;7.606;2022-07-22T07:08:19;23.40;99.90
7502;DHT22;3792;47.740;7.606;2022-07-22T07:10:47;23.10;99.90
7502;DHT22;3792;47.740;7.606;2022-07-22T07:13:15;23.00;99.90
7502;DHT22;3792;47.740;7.606;2022-07-22T07:15:42;22.90;99.90
7502;DHT22;3792;47.740;7.606;2022-07-22T07:18:09;23.00;99.90
7502;DHT22;3792;47.740;7.606;2022-07-22T07:20:37;22.90;99.90
7502;DHT22;3792;47.740;7.606;2022-07-22T07:23:06;22.80;99.90
7502;DHT22;3792;47.740;7.606;2022-07-22T07:25:33;22.90;99.90
7502;DHT22;3792;47.740;7.606;2022-07-22T07:28:00;22.70;99.90
7502;DHT22;3792;47.740;7.606;2022-07-22T07:30:27;22.80;99.90
7502;DHT22;3792;47.740;7.606;2022-07-22T07:32:54;22.70;99.90
7502;DHT22;3792;47.740;7.606;2022-07-22T07:35:21;22.80;99.90
7502;DHT22;3792;47.740;7.606;2022-07-22T07:37:49;22.80;99.90
7502;DHT22;3792;47.740;7.606;2022-07-22T07:40:17;22.70;99.90
7502;DHT22;3792;47.740;7.606;2022-07-22T07:42:45;22.70;99.90
7502;DHT22;3792;47.740;7.606;2022-07-22T07:45:12;22.80;99.90
7502;DHT22;3792;47.740;7.606;2022-07-22T07:47:39;22.90;99.90
7502;DHT22;3792;47.740;7.606;2022-07-22T07:50:07;22.80;99.90
7502;DHT22;3792;47.740;7.606;2022-07-22T07:52:37;23.00;99.90
7502;DHT22;3792;47.740;7.606;2022-07-22T07:55:08;23.10;99.90
7502;DHT22;3792;47.740;7.606;2022-07-22T07:57:41;23.20;99.90
7502;DHT22;3792;47.740;7.606;2022-07-22T08:00:13;23.20;99.90
7502;DHT22;3792;47.740;7.606;2022-07-22T08:02:43;23.30;99.90
7502;DHT22;3792;47.740;7.606;2022-07-22T08:05:12;23.30;99.90
7502;DHT22;3792;47.740;7.606;2022-07-22T08:07:44;23.40;99.90
7502;DHT22;3792;47.740;7.606;2022-07-22T08:10:19;23.40;99.90
7502;DHT22;3792;47.740;7.606;2022-07-22T08:12:51;23.50;99.90
7502;DHT22;3792;47.740;7.606;2022-07-22T08:15:22;23.50;99.90
7502;DHT22;3792;47.740;7.606;2022-07-22T08:17:51;23.60;99.90
7502;DHT22;3792;47.740;7.606;2022-07-22T08:20:20;23.70;99.90
7502;DHT22;3792;47.740;7.606;2022-07-22T08:22:49;23.80;99.90
7502;DHT22;3792;47.740;7.606;2022-07-22T08:25:19;23.80;99.90
7502;DHT22;3792;47.740;7.606;2022-07-22T08:27:50;23.80;99.90
7502;DHT22;3792;47.740;7.606;2022-07-22T08:30:20;23.90;99.90
7502;DHT22;3792;47.740;7.606;2022-07-22T08:32:51;24.00;99.90
7502;DHT22;3792;47.740;7.606;2022-07-22T08:35:20;24.10;99.90
7502;DHT22;3792;47.740;7.606;2022-07-22T08:37:49;24.10;99.90
7502;DHT22;3792;47.740;7.606;2022-07-22T08:40:21;24.10;99.90
7502;DHT22;3792;47.740;7.606;2022-07-22T08:42:55;24.20;99.90
7502;DHT22;3792;47.740;7.606;2022-07-22T08:45:29;24.30;99.90
7502;DHT22;3792;47.740;7.606;2022-07-22T08:47:59;24.40;99.90
7502;DHT22;3792;47.740;7.606;2022-07-22T08:50:35;24.60;99.90
7502;DHT22;3792;47.740;7.606;2022-07-22T08:53:08;24.70;99.90
7502;DHT22;3792;47.740;7.606;2022-07-22T08:55:41;24.80;99.90
7502;DHT22;3792;47.740;7.606;2022-07-22T08:58:13;24.90;99.90
7502;DHT22;3792;47.740;7.606;2022-07-22T09:00:41;24.90;99.90
7502;DHT22;3792;47.740;7.606;2022-07-22T09:03:24;24.90;99.90
7502;DHT22;3792;47.740;7.606;2022-07-22T09:05:54;25.00;99.90
7502;DHT22;3792;47.740;7.606;2022-07-22T09:08:21;25.00;99.90
7502;DHT22;3792;47.740;7.606;2022-07-22T09:10:48;25.20;99.90
7502;DHT22;3792;47.740;7.606;2022-07-22T09:13:17;25.40;99.90
7502;DHT22;3792;47.740;7.606;2022-07-22T09:15:49;25.50;99.90
7502;DHT22;3792;47.740;7.606;2022-07-22T09:18:16;25.60;99.90
7502;DHT22;3792;47.740;7.606;2022-07-22T09:20:43;25.70;99.90
7502;DHT22;3792;47.740;7.606;2022-07-22T09:23:12;25.70;99.90
7502;DHT22;3792;47.740;7.606;2022-07-22T09:25:40;25.90;99.90
7502;DHT22;3792;47.740;7.606;2022-07-22T09:28:13;26.00;99.90
7502;DHT22;3792;47.740;7.606;2022-07-22T09:30:48;26.30;99.90
7502;DHT22;3792;47.740;7.606;2022-07-22T09:33:16;26.40;99.90
7502;DHT22;3792;47.740;7.606;2022-07-22T09:35:46;26.50;99.90
7502;DHT22;3792;47.740;7.606;2022-07-22T09:38:14;26.70;99.90
7502;DHT22;3792;47.740;7.606;2022-07-22T09:40:43;26.80;99.90
7502;DHT22;3792;47.740;7.606;2022-07-22T09:43:12;26.70;99.90
7502;DHT22;3792;47.740;7.606;2022-07-22T09:45:47;26.60;99.90
7502;DHT22;3792;47.740;7.606;2022-07-22T09:48:16;26.70;99.90
7502;DHT22;3792;47.740;7.606;2022-07-22T09:50:45;27.00;99.90
7502;DHT22;3792;47.740;7.606;2022-07-22T09:53:12;27.20;99.90
7502;DHT22;3792;47.740;7.606;2022-07-22T09:55:40;27.30;99.90
7502;DHT22;3792;47.740;7.606;2022-07-22T09:58:07;27.50;99.90
7502;DHT22;3792;47.740;7.606;2022-07-22T10:00:36;27.90;99.90
7502;DHT22;3792;47.740;7.606;2022-07-22T10:03:06;28.10;99.90
7502;DHT22;3792;47.740;7.606;2022-07-22T10:05:35;28.20;99.90
7502;DHT22;3792;47.740;7.606;2022-07-22T10:08:04;28.10;99.90
7502;DHT22;3792;47.740;7.606;2022-07-22T10:10:33;28.20;99.90
7502;DHT22;3792;47.740;7.606;2022-07-22T10:13:02;28.40;99.90
7502;DHT22;3792;47.740;7.606;2022-07-22T10:15:31;28.50;99.90
7502;DHT22;3792;47.740;7.606;2022-07-22T10:18:01;28.60;99.90
7502;DHT22;3792;47.740;7.606;2022-07-22T10:20:31;28.40;99.90
7502;DHT22;3792;47.740;7.606;2022-07-22T10:23:00;28.50;99.90
7502;DHT22;3792;47.740;7.606;2022-07-22T10:25:29;28.70;99.90
7502;DHT22;3792;47.740;7.606;2022-07-22T10:27:59;28.80;99.90
7502;DHT22;3792;47.740;7.606;2022-07-22T10:30:28;28.80;99.90
7502;DHT22;3792;47.740;7.606;2022-07-22T10:33:09;28.90;99.90
7502;DHT22;3792;47.740;7.606;2022-07-22T10:35:53;29.00;99.40
7502;DHT22;3792;47.740;7.606;2022-07-22T10:38:21;29.10;99.50
7502;DHT22;3792;47.740;7.606;2022-07-22T10:40:51;29.10;99.70
7502;DHT22;3792;47.740;7.606;2022-07-22T10:43:20;29.20;99.40
7502;DHT22;3792;47.740;7.606;2022-07-22T10:45:52;29.20;99.50
7502;DHT22;3792;47.740;7.606;2022-07-22T10:48:22;29.30;98.90
7502;DHT22;3792;47.740;7.606;2022-07-22T10:51:06;29.50;99.20
7502;DHT22;3792;47.740;7.606;2022-07-22T10:53:42;29.70;98.90
7502;DHT22;3792;47.740;7.606;2022-07-22T10:56:18;29.70;98.60
7502;DHT22;3792;47.740;7.606;2022-07-22T10:58:54;29.80;98.40
7502;DHT22;3792;47.740;7.606;2022-07-22T11:01:24;29.90;98.30
7502;DHT22;3792;47.740;7.606;2022-07-22T11:03:51;29.90;98.30
7502;DHT22;3792;47.740;7.606;2022-07-22T11:06:30;29.90;98.10
7502;DHT22;3792;47.740;7.606;2022-07-22T11:08:58;29.90;98.00
7502;DHT22;3792;47.740;7.606;2022-07-22T11:11:39;30.10;97.80
7502;DHT22;3792;47.740;7.606;2022-07-22T11:14:15;30.00;97.70
7502;DHT22;3792;47.740;7.606;2022-07-22T11:16:46;30.00;97.70
7502;DHT22;3792;47.740;7.606;2022-07-22T11:19:13;30.20;97.50
7502;DHT22;3792;47.740;7.606;2022-07-22T11:21:42;30.50;97.70
7502;DHT22;3792;47.740;7.606;2022-07-22T11:24:15;30.50;97.00
7502;DHT22;3792;47.740;7.606;2022-07-22T11:26:49;30.50;96.80
7502;DHT22;3792;47.740;7.606;2022-07-22T11:29:18;30.40;96.90
7502;DHT22;3792;47.740;7.606;2022-07-22T11:31:45;30.60;96.80
7502;DHT22;3792;47.740;7.606;2022-07-22T11:34:13;30.90;97.50
7502;DHT22;3792;47.740;7.606;2022-07-22T11:36:44;31.00;95.90
7502;DHT22;3792;47.740;7.606;2022-07-22T11:39:14;31.10;96.00
7502;DHT22;3792;47.740;7.606;2022-07-22T11:41:41;31.30;96.10
7502;DHT22;3792;47.740;7.606;2022-07-22T11:44:09;31.50;95.40
7502;DHT22;3792;47.740;7.606;2022-07-22T11:46:37;31.50;94.90
7502;DHT22;3792;47.740;7.606;2022-07-22T11:49:06;31.70;95.80
7502;DHT22;3792;47.740;7.606;2022-07-22T11:51:35;31.80;94.50
7502;DHT22;3792;47.740;7.606;2022-07-22T11:54:04;31.90;95.00
7502;DHT22;3792;47.740;7.606;2022-07-22T11:56:34;31.90;94.10
7502;DHT22;3792;47.740;7.606;2022-07-22T11:59:02;32.00;94.50
7502;DHT22;3792;47.740;7.606;2022-07-22T12:01:33;32.30;93.80
7502;DHT22;3792;47.740;7.606;2022-07-22T12:04:02;32.30;94.20
7502;DHT22;3792;47.740;7.606;2022-07-22T12:06:30;32.50;94.40
7502;DHT22;3792;47.740;7.606;2022-07-22T12:09:05;32.50;93.30
7502;DHT22;3792;47.740;7.606;2022-07-22T12:11:34;32.30;92.90
7502;DHT22;3792;47.740;7.606;2022-07-22T12:14:07;32.40;93.00
7502;DHT22;3792;47.740;7.606;2022-07-22T12:16:35;32.50;92.70
7502;DHT22;3792;47.740;7.606;2022-07-22T12:19:07;32.10;92.70
7502;DHT22;3792;47.740;7.606;2022-07-22T12:21:36;32.30;93.10
7502;DHT22;3792;47.740;7.606;2022-07-22T12:24:06;32.50;92.60
7502;DHT22;3792;47.740;7.606;2022-07-22T12:26:44;32.50;91.90
7502;DHT22;3792;47.740;7.606;2022-07-22T12:29:17;32.50;91.80
7502;DHT22;3792;47.740;7.606;2022-07-22T12:31:45;32.50;91.60
7502;DHT22;3792;47.740;7.606;2022-07-22T12:34:13;32.70;91.40
7502;DHT22;3792;47.740;7.606;2022-07-22T12:36:44;32.80;91.30
7502;DHT22;3792;47.740;7.606;2022-07-22T12:39:18;33.10;91.50
7502;DHT22;3792;47.740;7.606;2022-07-22T12:41:48;33.50;90.80
7502;DHT22;3792;47.740;7.606;2022-07-22T12:44:17;33.50;90.10
7502;DHT22;3792;47.740;7.606;2022-07-22T12:46:49;33.60;90.30
7502;DHT22;3792;47.740;7.606;2022-07-22T12:49:17;33.70;90.30
7502;DHT22;3792;47.740;7.606;2022-07-22T12:52:09;33.80;88.50
7502;DHT22;3792;47.740;7.606;2022-07-22T12:54:39;33.80;84.00
7502;DHT22;3792;47.740;7.606;2022-07-22T12:57:08;33.80;86.90
7502;DHT22;3792;47.740;7.606;2022-07-22T12:59:36;33.80;85.30
7502;DHT22;3792;47.740;7.606;2022-07-22T13:02:03;33.80;83.30
7502;DHT22;3792;47.740;7.606;2022-07-22T13:04:30;33.80;83.50
7502;DHT22;3792;47.740;7.606;2022-07-22T13:06:58;33.70;84.90
7502;DHT22;3792;47.740;7.606;2022-07-22T13:09:28;33.90;86.00
7502;DHT22;3792;47.740;7.606;2022-07-22T13:11:56;33.90;82.70
7502;DHT22;3792;47.740;7.606;2022-07-22T13:14:24;34.10;81.80
7502;DHT22;3792;47.740;7.606;2022-07-22T13:16:51;34.10;80.70
7502;DHT22;3792;47.740;7.606;2022-07-22T13:19:18;34.30;81.40
7502;DHT22;3792;47.740;7.606;2022-07-22T13:21:45;34.40;76.70
7502;DHT22;3792;47.740;7.606;2022-07-22T13:24:12;34.40;76.20
7502;DHT22;3792;47.740;7.606;2022-07-22T13:26:40;34.30;75.40
7502;DHT22;3792;47.740;7.606;2022-07-22T13:29:09;34.40;73.40
7502;DHT22;3792;47.740;7.606;2022-07-22T13:31:36;34.30;75.10
7502;DHT22;3792;47.740;7.606;2022-07-22T13:34:03;34.50;76.50
7502;DHT22;3792;47.740;7.606;2022-07-22T13:36:30;34.60;73.60
7502;DHT22;3792;47.740;7.606;2022-07-22T13:38:59;34.50;73.50
7502;DHT22;3792;47.740;7.606;2022-07-22T13:41:27;34.40;70.60
7502;DHT22;3792;47.740;7.606;2022-07-22T13:43:55;34.50;71.30
7502;DHT22;3792;47.740;7.606;2022-07-22T13:46:23;34.60;69.60
7502;DHT22;3792;47.740;7.606;2022-07-22T13:48:50;34.60;69.40
7502;DHT22;3792;47.740;7.606;2022-07-22T13:51:19;34.60;67.60
7502;DHT22;3792;47.740;7.606;2022-07-22T13:53:46;34.60;67.10
7502;DHT22;3792;47.740;7.606;2022-07-22T13:56:13;34.60;66.10
7502;DHT22;3792;47.740;7.606;2022-07-22T13:58:44;34.80;66.80
7502;DHT22;3792;47.740;7.606;2022-07-22T14:01:11;34.90;65.60
7502;DHT22;3792;47.740;7.606;2022-07-22T14:03:40;35.00;67.10
7502;DHT22;3792;47.740;7.606;2022-07-22T14:06:08;35.20;67.30
7502;DHT22;3792;47.740;7.606;2022-07-22T14:08:36;35.10;64.20
7502;DHT22;3792;47.740;7.606;2022-07-22T14:11:04;35.20;62.40
7502;DHT22;3792;47.740;7.606;2022-07-22T14:13:31;35.20;60.90
7502;DHT22;3792;47.740;7.606;2022-07-22T14:15:58;35.20;60.00
7502;DHT22;3792;47.740;7.606;2022-07-22T14:18:48;35.10;62.00
7502;DHT22;3792;47.740;7.606;2022-07-22T14:21:15;35.10;62.10
7502;DHT22;3792;47.740;7.606;2022-07-22T14:23:42;35.30;61.40
7502;DHT22;3792;47.740;7.606;2022-07-22T14:26:18;35.40;61.80
7502;DHT22;3792;47.740;7.606;2022-07-22T14:28:46;35.50;62.50
7502;DHT22;3792;47.740;7.606;2022-07-22T14:31:13;35.40;61.40
7502;DHT22;3792;47.740;7.606;2022-07-22T14:33:41;35.30;61.20
7502;DHT22;3792;47.740;7.606;2022-07-22T14:36:09;35.30;60.50
7502;DHT22;3792;47.740;7.606;2022-07-22T14:38:36;35.40;61.60
7502;DHT22;3792;47.740;7.606;2022-07-22T14:41:04;35.20;60.50
7502;DHT22;3792;47.740;7.606;2022-07-22T14:43:32;35.20;61.20
7502;DHT22;3792;47.740;7.606;2022-07-22T14:46:00;35.40;60.60
7502;DHT22;3792;47.740;7.606;2022-07-22T14:48:28;35.20;60.30
7502;DHT22;3792;47.740;7.606;2022-07-22T14:50:55;35.20;59.50
7502;DHT22;3792;47.740;7.606;2022-07-22T14:53:24;35.20;59.80
7502;DHT22;3792;47.740;7.606;2022-07-22T14:55:51;35.40;60.30
7502;DHT22;3792;47.740;7.606;2022-07-22T14:58:18;35.50;61.20
7502;DHT22;3792;47.740;7.606;2022-07-22T15:00:46;35.40;60.00
7502;DHT22;3792;47.740;7.606;2022-07-22T15:03:13;35.20;59.30
7502;DHT22;3792;47.740;7.606;2022-07-22T15:05:40;35.20;59.00
7502;DHT22;3792;47.740;7.606;2022-07-22T15:08:08;35.30;58.10
7502;DHT22;3792;47.740;7.606;2022-07-22T15:10:37;35.40;58.50
7502;DHT22;3792;47.740;7.606;2022-07-22T15:13:04;35.50;60.50
7502;DHT22;3792;47.740;7.606;2022-07-22T15:15:31;35.50;58.70
7502;DHT22;3792;47.740;7.606;2022-07-22T15:18:00;35.70;59.20
7502;DHT22;3792;47.740;7.606;2022-07-22T15:20:27;35.90;58.80
7502;DHT22;3792;47.740;7.606;2022-07-22T15:22:54;35.90;58.00
7502;DHT22;3792;47.740;7.606;2022-07-22T15:25:22;35.70;57.60
7502;DHT22;3792;47.740;7.606;2022-07-22T15:27:51;35.70;58.90
7502;DHT22;3792;47.740;7.606;2022-07-22T15:30:18;35.80;59.70
7502;DHT22;3792;47.740;7.606;2022-07-22T15:32:47;35.80;58.40
7502;DHT22;3792;47.740;7.606;2022-07-22T15:35:14;35.50;58.00
7502;DHT22;3792;47.740;7.606;2022-07-22T15:37:41;35.30;57.70
7502;DHT22;3792;47.740;7.606;2022-07-22T15:40:10;35.10;57.40
7502;DHT22;3792;47.740;7.606;2022-07-22T15:42:38;35.00;57.20
7502;DHT22;3792;47.740;7.606;2022-07-22T15:45:08;35.00;56.20
7502;DHT22;3792;47.740;7.606;2022-07-22T15:47:35;34.90;56.30
7502;DHT22;3792;47.740;7.606;2022-07-22T15:50:03;34.80;56.30
7502;DHT22;3792;47.740;7.606;2022-07-22T15:52:30;34.80;56.20
7502;DHT22;3792;47.740;7.606;2022-07-22T15:54:57;34.60;56.20
7502;DHT22;3792;47.740;7.606;2022-07-22T15:57:24;34.60;57.00
7502;DHT22;3792;47.740;7.606;2022-07-22T16:00:11;34.50;57.20
7502;DHT22;3792;47.740;7.606;2022-07-22T16:02:38;34.50;57.00
7502;DHT22;3792;47.740;7.606;2022-07-22T16:05:07;34.60;57.10
7502;DHT22;3792;47.740;7.606;2022-07-22T16:07:34;34.70;57.20
7502;DHT22;3792;47.740;7.606;2022-07-22T16:10:01;34.70;58.00